Terminal Aerodrome Forecast
Issued by NWS

Home | Current Version | Previous Version | Text Only | Print | Product List | Glossary On
Versions: 1 2 3 4 5 6 7 8 9 10 11 12 13 14 15 16 17 18 19 20 21 22 23 24 25 26 27 28
000
FTAK31 PANC 031746
TAFAGK
TAF
PAGK 031746Z 0318/0418 16012KT P6SM VCSH BKN060
     FM032100 16020G35KT P6SM SCT060 BKN150
     FM040600 16011KT P6SM VCSH BKN050
     FM040900 12006KT P6SM -RA SCT020 OVC060=

USA.gov is the U.S. government's official web portal to all federal, state and local government web resources and services.